createdAt,value
2018-05-26T00:01:59.383Z,16.68
2018-05-26T00:04:27.768Z,16.65
2018-05-26T00:06:56.162Z,16.54
2018-05-26T00:09:24.625Z,16.35
2018-05-26T00:11:53.029Z,16.26
2018-05-26T00:14:21.525Z,16.11
2018-05-26T00:16:49.935Z,16.02
2018-05-26T00:19:18.326Z,15.82
2018-05-26T00:21:46.717Z,15.79
2018-05-26T00:24:15.121Z,15.85
2018-05-26T00:26:43.504Z,15.88
2018-05-26T00:29:11.880Z,15.88
2018-05-26T00:31:40.256Z,15.84
2018-05-26T00:34:08.621Z,15.75
2018-05-26T00:36:37.000Z,15.84
2018-05-26T00:39:04.830Z,15.78
2018-05-26T00:41:33.199Z,15.83
2018-05-26T00:44:01.577Z,15.99
2018-05-26T00:46:29.966Z,16.10
2018-05-26T00:48:58.434Z,16.16
2018-05-26T00:51:26.841Z,16.25
2018-05-26T00:53:55.205Z,16.30
2018-05-26T00:56:23.596Z,16.30
2018-05-26T00:58:52.065Z,16.34
2018-05-26T01:01:20.452Z,16.39
2018-05-26T01:03:48.862Z,16.36
2018-05-26T01:06:17.234Z,16.29
2018-05-26T01:08:45.624Z,16.17
2018-05-26T01:11:14.023Z,16.01
2018-05-26T01:13:42.610Z,15.85
2018-05-26T01:16:10.992Z,15.74
2018-05-26T01:18:39.399Z,15.61
2018-05-26T01:21:07.783Z,15.51
2018-05-26T01:23:36.177Z,15.44
2018-05-26T01:26:04.557Z,15.47
2018-05-26T01:28:32.920Z,15.59
2018-05-26T01:31:01.320Z,15.69
2018-05-26T01:33:29.728Z,15.73
2018-05-26T01:35:58.131Z,15.77
2018-05-26T01:38:26.518Z,15.42
2018-05-26T01:40:54.932Z,15.68
2018-05-26T01:43:23.346Z,15.75
2018-05-26T01:45:51.749Z,15.86
2018-05-26T01:48:20.141Z,15.91
2018-05-26T01:50:48.538Z,15.98
2018-05-26T01:53:16.902Z,16.06
2018-05-26T01:55:45.279Z,16.08
2018-05-26T01:58:13.660Z,16.02
2018-05-26T02:00:42.058Z,15.87
2018-05-26T02:03:10.434Z,15.80
2018-05-26T02:05:38.841Z,15.86
2018-05-26T02:08:07.219Z,15.95
2018-05-26T02:10:35.622Z,15.99
2018-05-26T02:13:03.992Z,16.05
2018-05-26T02:15:32.383Z,16.03
2018-05-26T02:18:00.776Z,16.06
2018-05-26T02:20:34.054Z,15.63
2018-05-26T02:23:02.445Z,15.90
2018-05-26T02:25:30.827Z,15.85
2018-05-26T02:27:59.307Z,15.83
2018-05-26T02:30:27.740Z,15.66
2018-05-26T02:32:56.133Z,15.72
2018-05-26T02:35:24.501Z,15.63
2018-05-26T02:37:53.105Z,15.45
2018-05-26T02:40:22.014Z,14.59
2018-05-26T02:42:50.458Z,15.19
2018-05-26T02:45:18.851Z,15.09
2018-05-26T02:47:47.217Z,15.08
2018-05-26T02:50:16.997Z,15.07
2018-05-26T02:52:45.382Z,15.07
2018-05-26T02:55:20.855Z,15.04
2018-05-26T02:57:49.277Z,15.02
2018-05-26T03:00:19.694Z,13.97
2018-05-26T03:02:48.080Z,15.12
2018-05-26T03:05:25.512Z,15.27
2018-05-26T03:07:59.153Z,15.33
2018-05-26T03:10:32.913Z,15.28
2018-05-26T03:13:06.538Z,15.27
2018-05-26T03:15:34.677Z,15.23
2018-05-26T03:18:13.145Z,15.33
2018-05-26T03:20:41.537Z,15.38
2018-05-26T03:23:09.930Z,15.36
2018-05-26T03:25:38.327Z,15.36
2018-05-26T03:28:06.706Z,15.35
2018-05-26T03:30:35.089Z,15.35
2018-05-26T03:33:03.480Z,15.19
2018-05-26T03:35:31.852Z,15.37
2018-05-26T03:38:00.230Z,15.41
2018-05-26T03:40:30.809Z,15.47
2018-05-26T03:42:59.224Z,15.61
2018-05-26T03:45:27.717Z,15.63
2018-05-26T03:47:56.090Z,15.66
2018-05-26T03:50:24.531Z,15.75
2018-05-26T03:52:53.005Z,15.82
2018-05-26T03:55:41.560Z,15.14
2018-05-26T03:58:20.933Z,16.00
2018-05-26T04:00:49.364Z,15.95
2018-05-26T04:03:17.743Z,15.91
2018-05-26T04:05:47.886Z,15.85
2018-05-26T04:08:16.408Z,15.87
2018-05-26T04:10:44.796Z,15.90
2018-05-26T04:13:13.169Z,15.97
2018-05-26T04:15:41.320Z,15.99
2018-05-26T04:18:09.740Z,15.99
2018-05-26T04:20:38.122Z,16.03
2018-05-26T04:23:06.502Z,16.06
2018-05-26T04:25:34.880Z,16.05
2018-05-26T04:28:03.264Z,16.10
2018-05-26T04:30:31.633Z,16.14
2018-05-26T04:33:00.022Z,16.19
2018-05-26T04:35:29.597Z,16.24
2018-05-26T04:37:58.144Z,16.30
2018-05-26T04:40:27.521Z,16.41
2018-05-26T04:42:55.896Z,16.53
2018-05-26T04:45:24.297Z,16.61
2018-05-26T04:47:52.681Z,16.75
2018-05-26T04:50:22.026Z,16.88
2018-05-26T04:52:50.409Z,16.98
2018-05-26T04:55:19.001Z,17.12
2018-05-26T04:57:48.885Z,17.19
2018-05-26T05:00:17.538Z,17.15
2018-05-26T05:02:46.001Z,17.26
2018-05-26T05:05:14.649Z,17.30
2018-05-26T05:07:43.092Z,17.31
2018-05-26T05:10:11.745Z,17.31
2018-05-26T05:12:40.119Z,17.42
2018-05-26T05:15:08.497Z,17.55
2018-05-26T05:17:36.877Z,17.58
2018-05-26T05:20:05.281Z,17.65
2018-05-26T05:22:33.993Z,17.66
2018-05-26T05:25:02.369Z,17.51
2018-05-26T05:27:30.742Z,17.63
2018-05-26T05:29:59.182Z,17.69
2018-05-26T05:32:27.557Z,17.76
2018-05-26T05:34:56.133Z,17.85
2018-05-26T05:37:24.182Z,17.77
2018-05-26T05:39:52.563Z,18.00
2018-05-26T05:42:20.947Z,18.07
2018-05-26T05:44:49.321Z,17.95
2018-05-26T05:47:17.696Z,18.26
2018-05-26T05:49:46.082Z,18.35
2018-05-26T05:52:14.460Z,18.37
2018-05-26T05:54:42.834Z,18.54
2018-05-26T05:57:11.217Z,18.61
2018-05-26T05:59:39.593Z,18.72
2018-05-26T06:02:08.014Z,18.77
2018-05-26T06:04:36.487Z,18.82
2018-05-26T06:07:04.864Z,18.86
2018-05-26T06:09:33.279Z,18.86
2018-05-26T06:12:01.664Z,18.94
2018-05-26T06:14:30.037Z,19.06
2018-05-26T06:16:58.431Z,19.18
2018-05-26T06:19:26.842Z,19.27
2018-05-26T06:21:55.225Z,19.23
2018-05-26T06:24:23.598Z,19.27
2018-05-26T06:26:51.978Z,19.28
2018-05-26T06:29:20.402Z,18.95
2018-05-26T06:31:48.919Z,19.40
2018-05-26T06:34:17.364Z,19.48
2018-05-26T06:36:45.813Z,19.60
2018-05-26T06:39:14.257Z,19.76
2018-05-26T06:41:42.670Z,19.84
2018-05-26T06:44:11.169Z,19.94
2018-05-26T06:46:39.600Z,19.93
2018-05-26T06:49:07.999Z,19.94
2018-05-26T06:51:36.437Z,19.98
2018-05-26T06:54:04.823Z,20.09
2018-05-26T06:56:33.487Z,20.14
2018-05-26T06:59:01.895Z,20.14
2018-05-26T07:01:30.321Z,20.22
2018-05-26T07:03:58.711Z,20.30
2018-05-26T07:06:27.123Z,20.40
2018-05-26T07:08:55.298Z,20.41
2018-05-26T07:11:23.687Z,20.34
2018-05-26T07:13:52.061Z,20.39
2018-05-26T07:16:20.478Z,20.51
2018-05-26T07:18:48.860Z,20.61
2018-05-26T07:21:17.283Z,20.70
2018-05-26T07:23:45.662Z,20.69
2018-05-26T07:26:14.037Z,20.82
2018-05-26T07:28:42.418Z,20.94
2018-05-26T07:31:10.890Z,21.00
2018-05-26T07:33:39.273Z,20.96
2018-05-26T07:36:09.423Z,21.08
2018-05-26T07:38:37.921Z,21.18
2018-05-26T07:41:06.306Z,21.34
2018-05-26T07:43:34.688Z,21.45
2018-05-26T07:46:03.115Z,21.58
2018-05-26T07:48:31.496Z,21.70
2018-05-26T07:50:59.559Z,21.68
2018-05-26T07:53:27.933Z,21.77
2018-05-26T07:55:56.369Z,21.79
2018-05-26T07:58:24.920Z,21.91
2018-05-26T08:00:53.085Z,22.01
2018-05-26T08:03:21.776Z,22.12
2018-05-26T08:05:50.157Z,22.23
2018-05-26T08:11:49.215Z,22.31
2018-05-26T08:14:17.604Z,22.43
2018-05-26T08:16:46.014Z,22.44
2018-05-26T08:19:14.413Z,22.49
2018-05-26T08:21:42.585Z,22.48
2018-05-26T08:24:10.966Z,22.65
2018-05-26T08:26:39.344Z,22.80
2018-05-26T08:29:07.866Z,22.81
2018-05-26T08:31:36.296Z,22.87
2018-05-26T08:34:04.697Z,23.05
2018-05-26T08:36:33.081Z,22.97
2018-05-26T08:39:01.478Z,23.05
2018-05-26T08:41:29.862Z,23.10
2018-05-26T08:43:58.271Z,23.12
2018-05-26T08:46:26.645Z,23.26
2018-05-26T08:48:55.033Z,23.39
2018-05-26T08:51:23.408Z,23.43
2018-05-26T08:53:51.824Z,23.54
2018-05-26T08:56:20.225Z,23.59
2018-05-26T08:58:48.601Z,23.68
2018-05-26T09:01:17.016Z,23.74
2018-05-26T09:03:45.377Z,23.81
2018-05-26T09:06:13.819Z,23.90
2018-05-26T09:08:42.253Z,23.69
2018-05-26T09:11:10.637Z,23.68
2018-05-26T09:13:39.007Z,23.79
2018-05-26T09:16:07.426Z,23.82
2018-05-26T09:18:35.801Z,24.00
2018-05-26T09:21:04.169Z,24.09
2018-05-26T09:23:32.552Z,24.27
2018-05-26T09:26:00.919Z,24.50
2018-05-26T09:28:29.326Z,24.14
2018-05-26T09:30:57.721Z,24.30
2018-05-26T09:33:27.464Z,24.58
2018-05-26T09:35:55.833Z,24.75
2018-05-26T09:38:24.394Z,24.79
2018-05-26T09:40:52.814Z,24.84
2018-05-26T09:43:21.195Z,24.66
2018-05-26T09:45:49.591Z,24.81
2018-05-26T09:48:18.165Z,25.09
2018-05-26T09:50:46.561Z,25.11
2018-05-26T09:53:14.951Z,25.14
2018-05-26T09:55:43.374Z,25.37
2018-05-26T09:58:11.755Z,25.60
2018-05-26T10:00:40.137Z,25.65
2018-05-26T10:03:08.501Z,25.71
2018-05-26T10:05:36.897Z,25.75
2018-05-26T10:08:05.377Z,25.83
2018-05-26T10:10:33.762Z,25.96
2018-05-26T10:13:02.143Z,25.83
2018-05-26T10:15:30.621Z,26.01
2018-05-26T10:17:59.021Z,26.27
2018-05-26T10:20:27.406Z,26.39
2018-05-26T10:22:55.795Z,25.82
2018-05-26T10:25:24.210Z,25.99
2018-05-26T10:27:52.920Z,26.09
2018-05-26T10:30:21.455Z,26.22
2018-05-26T10:32:49.825Z,25.75
2018-05-26T10:35:20.632Z,25.85
2018-05-26T10:37:49.004Z,26.21
2018-05-26T10:40:18.933Z,26.46
2018-05-26T10:42:47.384Z,26.58
2018-05-26T10:45:15.596Z,26.64
2018-05-26T10:47:43.989Z,26.68
2018-05-26T10:50:12.427Z,26.34
2018-05-26T10:52:40.809Z,26.45
2018-05-26T10:55:09.246Z,26.74
2018-05-26T10:57:37.671Z,26.99
2018-05-26T11:00:06.061Z,27.06
2018-05-26T11:02:34.473Z,27.19
2018-05-26T11:05:02.861Z,27.21
2018-05-26T11:07:31.253Z,27.18
2018-05-26T11:09:59.701Z,27.14
2018-05-26T11:12:28.057Z,27.05
2018-05-26T11:14:56.437Z,26.88
2018-05-26T11:17:24.643Z,26.79
2018-05-26T11:19:53.047Z,27.01
2018-05-26T11:22:21.432Z,27.06
2018-05-26T11:24:49.852Z,27.20
2018-05-26T11:27:18.370Z,27.30
2018-05-26T11:29:46.749Z,27.43
2018-05-26T11:32:15.374Z,27.54
2018-05-26T11:34:43.981Z,27.58
2018-05-26T11:37:12.357Z,27.70
2018-05-26T11:39:40.737Z,27.60
2018-05-26T11:42:09.109Z,27.69
2018-05-26T11:44:37.489Z,27.62
2018-05-26T11:47:05.869Z,27.79
2018-05-26T11:49:34.251Z,27.61
2018-05-26T11:52:02.617Z,27.65
2018-05-26T11:54:31.298Z,27.75
2018-05-26T11:56:59.682Z,27.87
2018-05-26T11:59:28.065Z,28.01
2018-05-26T12:01:56.481Z,27.92
2018-05-26T12:04:25.047Z,27.90
2018-05-26T12:06:53.413Z,28.05
2018-05-26T12:09:21.782Z,28.18
2018-05-26T12:11:50.202Z,28.13
2018-05-26T12:14:18.581Z,28.08
2018-05-26T12:16:46.961Z,28.13
2018-05-26T12:19:15.350Z,28.17
2018-05-26T12:21:43.757Z,28.22
2018-05-26T12:24:12.158Z,27.90
2018-05-26T12:26:40.538Z,27.65
2018-05-26T12:29:08.912Z,27.10
2018-05-26T12:31:37.312Z,27.41
2018-05-26T12:34:05.717Z,27.77
2018-05-26T12:36:34.354Z,27.89
2018-05-26T12:39:02.743Z,27.74
2018-05-26T12:41:31.166Z,27.96
2018-05-26T12:43:59.614Z,28.03
2018-05-26T12:46:28.069Z,28.05
2018-05-26T12:48:56.456Z,28.07
2018-05-26T12:51:24.854Z,27.77
2018-05-26T12:53:53.216Z,27.50
2018-05-26T12:56:21.591Z,27.22
2018-05-26T12:58:49.956Z,27.30
2018-05-26T13:01:18.333Z,27.24
2018-05-26T13:03:46.701Z,27.52
2018-05-26T13:06:15.160Z,27.56
2018-05-26T13:08:43.465Z,26.98
2018-05-26T13:11:11.836Z,27.14
2018-05-26T13:13:40.212Z,27.32
2018-05-26T13:16:08.590Z,27.45
2018-05-26T13:18:36.962Z,27.41
2018-05-26T13:21:05.325Z,26.95
2018-05-26T13:23:33.693Z,27.09
2018-05-26T13:26:02.114Z,27.20
2018-05-26T13:28:30.477Z,27.27
2018-05-26T13:30:58.851Z,27.24
2018-05-26T13:33:27.235Z,26.96
2018-05-26T13:35:55.613Z,27.05
2018-05-26T13:38:24.004Z,27.23
2018-05-26T13:40:52.366Z,27.35
2018-05-26T13:43:20.790Z,27.40
2018-05-26T13:45:49.322Z,27.55
2018-05-26T13:48:17.787Z,27.77
2018-05-26T13:50:46.242Z,27.06
2018-05-26T13:53:14.891Z,27.33
2018-05-26T13:55:43.272Z,27.35
2018-05-26T13:58:11.647Z,27.31
2018-05-26T14:00:40.072Z,27.40
2018-05-26T14:03:08.595Z,27.43
2018-05-26T14:05:36.969Z,27.39
2018-05-26T14:08:05.353Z,27.23
2018-05-26T14:10:33.732Z,26.77
2018-05-26T14:13:02.124Z,26.45
2018-05-26T14:15:33.678Z,26.33
2018-05-26T14:18:02.090Z,26.38
2018-05-26T14:20:30.461Z,26.48
2018-05-26T14:22:58.926Z,26.67
2018-05-26T14:25:27.293Z,26.79
2018-05-26T14:27:55.667Z,26.80
2018-05-26T14:30:24.469Z,26.91
2018-05-26T14:32:52.850Z,26.97
2018-05-26T14:35:23.630Z,26.95
2018-05-26T14:37:52.096Z,26.97
2018-05-26T14:40:20.778Z,27.01
2018-05-26T14:42:50.365Z,27.05
2018-05-26T14:45:18.949Z,27.09
2018-05-26T14:47:47.328Z,26.99
2018-05-26T14:50:17.835Z,26.56
2018-05-26T14:52:46.242Z,26.80
2018-05-26T14:55:15.043Z,26.86
2018-05-26T14:57:43.414Z,26.92
2018-05-26T15:00:12.889Z,26.25
2018-05-26T15:02:41.270Z,26.79
2018-05-26T15:05:09.751Z,26.74
2018-05-26T15:07:38.133Z,26.24
2018-05-26T15:10:06.496Z,26.48
2018-05-26T15:12:34.865Z,26.40
2018-05-26T15:15:03.283Z,26.29
2018-05-26T15:17:31.666Z,26.37
2018-05-26T15:20:00.058Z,26.48
2018-05-26T15:22:28.555Z,26.52
2018-05-26T15:24:57.033Z,26.35
2018-05-26T15:27:25.398Z,26.39
2018-05-26T15:29:53.769Z,26.45
2018-05-26T15:32:22.145Z,26.28
2018-05-26T15:34:50.537Z,26.23
2018-05-26T15:37:18.924Z,26.34
2018-05-26T15:39:47.289Z,26.42
2018-05-26T15:42:15.661Z,26.44
2018-05-26T15:44:44.253Z,26.47
2018-05-26T15:47:12.647Z,26.45
2018-05-26T15:49:41.017Z,26.44
2018-05-26T15:52:09.424Z,26.35
2018-05-26T15:54:37.810Z,26.10
2018-05-26T15:57:06.196Z,26.11
2018-05-26T15:59:34.614Z,26.11
2018-05-26T16:02:02.989Z,26.17
2018-05-26T16:04:31.398Z,26.21
2018-05-26T16:06:59.790Z,26.19
2018-05-26T16:09:28.182Z,26.20
2018-05-26T16:11:56.566Z,26.24
2018-05-26T16:14:24.953Z,26.28
2018-05-26T16:16:53.325Z,26.34
2018-05-26T16:19:21.734Z,26.33
2018-05-26T16:21:50.113Z,26.34
2018-05-26T16:24:18.527Z,26.33
2018-05-26T16:26:46.904Z,26.36
2018-05-26T16:29:15.290Z,26.35
2018-05-26T16:31:43.695Z,26.28
2018-05-26T16:34:12.220Z,26.28
2018-05-26T16:36:40.669Z,26.33
2018-05-26T16:39:09.025Z,26.34
2018-05-26T16:41:37.428Z,26.37
2018-05-26T16:44:05.869Z,26.32
2018-05-26T16:46:34.248Z,26.29
2018-05-26T16:49:02.676Z,26.25
2018-05-26T16:51:31.091Z,26.28
2018-05-26T16:53:59.469Z,26.26
2018-05-26T16:56:27.856Z,26.19
2018-05-26T16:58:56.232Z,26.16
2018-05-26T17:01:24.598Z,26.09
2018-05-26T17:03:53.176Z,26.08
2018-05-26T17:06:21.347Z,25.99
2018-05-26T17:08:49.764Z,25.96
2018-05-26T17:11:18.161Z,25.94
2018-05-26T17:13:46.524Z,25.89
2018-05-26T17:16:14.905Z,25.81
2018-05-26T17:18:43.286Z,25.80
2018-05-26T17:21:11.869Z,25.69
2018-05-26T17:23:40.256Z,25.77
2018-05-26T17:26:08.672Z,25.80
2018-05-26T17:28:37.037Z,25.81
2018-05-26T17:31:05.432Z,25.76
2018-05-26T17:33:33.825Z,25.80
2018-05-26T17:36:02.233Z,25.82
2018-05-26T17:38:30.665Z,25.83
2018-05-26T17:40:59.039Z,25.84
2018-05-26T17:43:27.529Z,25.83
2018-05-26T17:45:56.032Z,25.82
2018-05-26T17:48:24.189Z,25.78
2018-05-26T17:50:52.562Z,25.77
2018-05-26T17:53:20.930Z,25.74
2018-05-26T17:55:49.309Z,25.64
2018-05-26T17:58:17.762Z,25.61
2018-05-26T18:00:46.136Z,25.59
2018-05-26T18:03:14.592Z,25.57
2018-05-26T18:05:43.165Z,25.56
2018-05-26T18:08:11.553Z,25.53
2018-05-26T18:10:40.037Z,25.45
2018-05-26T18:13:08.445Z,25.37
2018-05-26T18:15:36.817Z,25.34
2018-05-26T18:18:05.399Z,25.27
2018-05-26T18:20:33.900Z,25.21
2018-05-26T18:23:02.454Z,25.14
2018-05-26T18:25:31.869Z,25.07
2018-05-26T18:28:00.287Z,24.74
2018-05-26T18:30:28.910Z,24.96
2018-05-26T18:32:57.301Z,24.93
2018-05-26T18:35:26.812Z,24.87
2018-05-26T18:37:55.469Z,24.86
2018-05-26T18:40:24.451Z,24.58
2018-05-26T18:42:53.140Z,24.77
2018-05-26T18:45:25.741Z,24.73
2018-05-26T18:47:55.001Z,24.70
2018-05-26T18:53:00.118Z,24.62
2018-05-26T18:55:28.493Z,24.60
2018-05-26T18:57:56.927Z,24.59
2018-05-26T19:00:27.625Z,24.54
2018-05-26T19:02:57.910Z,24.49
2018-05-26T19:05:26.413Z,24.48
2018-05-26T19:07:55.330Z,24.50
2018-05-26T19:10:23.713Z,24.43
2018-05-26T19:12:52.236Z,24.29
2018-05-26T19:15:20.950Z,24.23
2018-05-26T19:17:50.593Z,24.06
2018-05-26T19:20:24.832Z,23.47
2018-05-26T19:22:54.218Z,23.76
2018-05-26T19:25:27.538Z,23.71
2018-05-26T19:30:39.022Z,23.61
2018-05-26T19:33:09.712Z,23.58
2018-05-26T19:35:38.090Z,23.51
2018-05-26T19:38:08.007Z,23.45
2018-05-26T19:40:36.419Z,23.23
2018-05-26T19:43:04.840Z,23.06
2018-05-26T19:45:33.270Z,23.06
2018-05-26T19:48:01.661Z,22.97
2018-05-26T19:50:30.077Z,22.81
2018-05-26T19:52:58.487Z,22.76
2018-05-26T19:55:39.758Z,22.67
2018-05-26T19:58:08.249Z,22.66
2018-05-26T20:00:36.704Z,22.64
2018-05-26T20:03:05.077Z,22.58
2018-05-26T20:05:35.598Z,22.65
2018-05-26T20:08:03.997Z,22.62
2018-05-26T20:10:32.394Z,22.21
2018-05-26T20:13:00.795Z,22.36
2018-05-26T20:15:34.050Z,22.23
2018-05-26T20:18:02.446Z,22.12
2018-05-26T20:20:30.915Z,21.21
2018-05-26T20:22:59.324Z,21.90
2018-05-26T20:25:27.778Z,21.75
2018-05-26T20:27:56.432Z,21.63
2018-05-26T20:30:24.829Z,21.71
2018-05-26T20:32:53.384Z,21.62
2018-05-26T20:38:04.173Z,21.48
2018-05-26T20:40:32.580Z,21.52
2018-05-26T20:43:01.030Z,21.50
2018-05-26T20:45:29.449Z,21.50
2018-05-26T20:47:57.892Z,21.36
2018-05-26T20:50:31.478Z,21.26
2018-05-26T20:52:59.866Z,21.20
2018-05-26T20:55:28.301Z,21.15
2018-05-26T20:57:56.763Z,20.98
2018-05-26T21:00:25.179Z,20.98
2018-05-26T21:02:53.557Z,20.96
2018-05-26T21:05:22.112Z,20.51
2018-05-26T21:07:50.500Z,21.12
2018-05-26T21:10:19.262Z,21.12
2018-05-26T21:12:47.916Z,20.90
2018-05-26T21:15:26.868Z,20.57
2018-05-26T21:17:55.267Z,21.10
2018-05-26T21:20:33.336Z,20.98
2018-05-26T21:23:01.731Z,20.85
2018-05-26T21:25:34.804Z,20.20
2018-05-26T21:28:03.176Z,20.58
2018-05-26T21:30:32.589Z,20.52
2018-05-26T21:33:00.962Z,20.39
2018-05-26T21:35:36.729Z,20.30
2018-05-26T21:38:05.908Z,20.25
2018-05-26T21:40:34.329Z,20.21
2018-05-26T21:43:02.738Z,20.13
2018-05-26T21:45:31.189Z,20.13
2018-05-26T21:47:59.582Z,20.12
2018-05-26T21:50:28.534Z,20.07
2018-05-26T21:52:56.937Z,20.01
2018-05-26T21:55:25.701Z,19.99
2018-05-26T21:57:54.094Z,19.96
2018-05-26T22:00:26.770Z,19.99
2018-05-26T22:02:56.350Z,20.02
2018-05-26T22:05:26.280Z,20.02
2018-05-26T22:07:54.943Z,19.91
2018-05-26T22:10:24.775Z,19.41
2018-05-26T22:12:52.930Z,19.85
2018-05-26T22:15:21.333Z,19.81
2018-05-26T22:17:49.702Z,19.74
2018-05-26T22:20:21.677Z,19.43
2018-05-26T22:22:50.128Z,19.80
2018-05-26T22:28:02.873Z,19.65
2018-05-26T22:30:33.394Z,19.36
2018-05-26T22:33:01.770Z,19.66
2018-05-26T22:35:30.178Z,19.66
2018-05-26T22:37:58.778Z,19.57
2018-05-26T22:40:33.603Z,19.48
2018-05-26T22:43:02.034Z,19.44
2018-05-26T22:45:38.807Z,19.42
2018-05-26T22:48:07.203Z,19.38
2018-05-26T22:50:35.589Z,19.37
2018-05-26T22:53:04.012Z,19.30
2018-05-26T22:55:32.429Z,19.25
2018-05-26T22:58:00.864Z,19.23
2018-05-26T23:00:35.179Z,19.19
2018-05-26T23:03:03.555Z,19.39
2018-05-26T23:05:42.965Z,19.17
2018-05-26T23:08:11.647Z,19.32
2018-05-26T23:10:40.109Z,19.31
2018-05-26T23:13:08.581Z,19.37
2018-05-26T23:15:37.124Z,19.41
2018-05-26T23:18:05.793Z,19.48
2018-05-26T23:20:36.370Z,18.84
2018-05-26T23:23:04.762Z,19.45
2018-05-26T23:25:33.201Z,19.30
2018-05-26T23:28:01.696Z,18.80
2018-05-26T23:30:30.477Z,19.03
2018-05-26T23:32:59.282Z,18.93
2018-05-26T23:35:36.509Z,18.75
2018-05-26T23:38:05.588Z,18.88
2018-05-26T23:40:34.097Z,18.93
2018-05-26T23:43:02.489Z,18.91
2018-05-26T23:45:31.739Z,18.78
2018-05-26T23:48:00.273Z,18.85
2018-05-26T23:50:28.665Z,18.94
2018-05-26T23:52:57.036Z,19.04
2018-05-26T23:55:36.925Z,19.02
2018-05-26T23:58:05.304Z,19.02
